sensor_id;sensor_type;location;lat;lon;timestamp;temperature;humidity
66962;HTU21D;53897;51.126;5.868;2023-03-23T00:01:26;22.55;45.08
66962;HTU21D;53897;51.126;5.868;2023-03-23T00:03:56;22.54;45.06
66962;HTU21D;53897;51.126;5.868;2023-03-23T00:06:25;22.52;45.06
66962;HTU21D;53897;51.126;5.868;2023-03-23T00:08:52;22.52;45.03
66962;HTU21D;53897;51.126;5.868;2023-03-23T00:11:24;22.50;45.01
66962;HTU21D;53897;51.126;5.868;2023-03-23T00:13:52;22.50;45.02
66962;HTU21D;53897;51.126;5.868;2023-03-23T00:16:21;22.49;45.02
66962;HTU21D;53897;51.126;5.868;2023-03-23T00:18:56;22.49;44.99
66962;HTU21D;53897;51.126;5.868;2023-03-23T00:21:23;22.48;44.99
66962;HTU21D;53897;51.126;5.868;2023-03-23T00:24:01;22.46;44.97
66962;HTU21D;53897;51.126;5.868;2023-03-23T00:26:27;22.44;44.98
66962;HTU21D;53897;51.126;5.868;2023-03-23T00:28:55;22.43;44.97
66962;HTU21D;53897;51.126;5.868;2023-03-23T00:31:22;22.43;44.94
66962;HTU21D;53897;51.126;5.868;2023-03-23T00:33:47;22.41;44.93
66962;HTU21D;53897;51.126;5.868;2023-03-23T00:36:13;22.40;44.93
66962;HTU21D;53897;51.126;5.868;2023-03-23T00:38:40;22.39;44.91
66962;HTU21D;53897;51.126;5.868;2023-03-23T00:41:09;22.38;44.92
66962;HTU21D;53897;51.126;5.868;2023-03-23T00:43:36;22.37;44.91
66962;HTU21D;53897;51.126;5.868;2023-03-23T00:46:03;22.37;44.92
66962;HTU21D;53897;51.126;5.868;2023-03-23T00:48:35;22.35;44.91
66962;HTU21D;53897;51.126;5.868;2023-03-23T00:51:03;22.35;44.90
66962;HTU21D;53897;51.126;5.868;2023-03-23T00:53:34;22.33;44.90
66962;HTU21D;53897;51.126;5.868;2023-03-23T00:56:00;22.32;44.87
66962;HTU21D;53897;51.126;5.868;2023-03-23T00:58:26;22.31;44.84
66962;HTU21D;53897;51.126;5.868;2023-03-23T01:00:51;22.29;44.87
66962;HTU21D;53897;51.126;5.868;2023-03-23T01:03:17;22.31;44.87
66962;HTU21D;53897;51.126;5.868;2023-03-23T01:05:45;22.27;44.89
66962;HTU21D;53897;51.126;5.868;2023-03-23T01:08:14;22.25;44.89
66962;HTU21D;53897;51.126;5.868;2023-03-23T01:10:40;22.25;44.90
66962;HTU21D;53897;51.126;5.868;2023-03-23T01:13:07;22.24;44.90
66962;HTU21D;53897;51.126;5.868;2023-03-23T01:15:33;22.24;44.92
66962;HTU21D;53897;51.126;5.868;2023-03-23T01:17:59;22.23;44.90
66962;HTU21D;53897;51.126;5.868;2023-03-23T01:20:25;22.22;44.90
66962;HTU21D;53897;51.126;5.868;2023-03-23T01:23:00;22.20;44.89
66962;HTU21D;53897;51.126;5.868;2023-03-23T01:25:36;22.20;44.89
66962;HTU21D;53897;51.126;5.868;2023-03-23T01:28:03;22.18;44.91
66962;HTU21D;53897;51.126;5.868;2023-03-23T01:30:28;22.18;44.91
66962;HTU21D;53897;51.126;5.868;2023-03-23T01:32:54;22.18;44.92
66962;HTU21D;53897;51.126;5.868;2023-03-23T01:35:21;22.14;44.91
66962;HTU21D;53897;51.126;5.868;2023-03-23T01:37:47;22.14;44.90
66962;HTU21D;53897;51.126;5.868;2023-03-23T01:40:15;22.14;44.90
66962;HTU21D;53897;51.126;5.868;2023-03-23T01:42:42;22.13;44.90
66962;HTU21D;53897;51.126;5.868;2023-03-23T01:45:24;22.13;44.90
66962;HTU21D;53897;51.126;5.868;2023-03-23T01:48:14;22.11;44.87
66962;HTU21D;53897;51.126;5.868;2023-03-23T01:50:57;22.11;44.84
66962;HTU21D;53897;51.126;5.868;2023-03-23T01:53:29;22.10;44.87
66962;HTU21D;53897;51.126;5.868;2023-03-23T01:55:57;22.09;44.85
66962;HTU21D;53897;51.126;5.868;2023-03-23T01:58:28;22.08;44.85
66962;HTU21D;53897;51.126;5.868;2023-03-23T02:00:58;22.07;44.86
66962;HTU21D;53897;51.126;5.868;2023-03-23T02:03:29;22.06;44.85
66962;HTU21D;53897;51.126;5.868;2023-03-23T02:05:57;22.06;44.87
66962;HTU21D;53897;51.126;5.868;2023-03-23T02:08:43;22.05;44.87
66962;HTU21D;53897;51.126;5.868;2023-03-23T02:11:16;22.03;44.87
66962;HTU21D;53897;51.126;5.868;2023-03-23T02:13:44;22.03;44.87
66962;HTU21D;53897;51.126;5.868;2023-03-23T02:24:53;21.98;44.86
66962;HTU21D;53897;51.126;5.868;2023-03-23T02:35:50;21.95;44.84
66962;HTU21D;53897;51.126;5.868;2023-03-23T02:38:23;21.95;44.86
66962;HTU21D;53897;51.126;5.868;2023-03-23T02:40:55;21.92;44.84
66962;HTU21D;53897;51.126;5.868;2023-03-23T02:43:25;21.93;44.84
66962;HTU21D;53897;51.126;5.868;2023-03-23T02:45:55;21.91;44.87
66962;HTU21D;53897;51.126;5.868;2023-03-23T02:48:27;21.89;44.86
66962;HTU21D;53897;51.126;5.868;2023-03-23T02:50:54;21.89;44.86
66962;HTU21D;53897;51.126;5.868;2023-03-23T02:53:25;21.90;44.85
66962;HTU21D;53897;51.126;5.868;2023-03-23T02:55:55;21.89;44.84
66962;HTU21D;53897;51.126;5.868;2023-03-23T02:58:24;21.88;44.85
66962;HTU21D;53897;51.126;5.868;2023-03-23T03:00:51;21.87;44.84
66962;HTU21D;53897;51.126;5.868;2023-03-23T03:03:23;21.84;44.87
66962;HTU21D;53897;51.126;5.868;2023-03-23T03:08:45;21.84;44.86
66962;HTU21D;53897;51.126;5.868;2023-03-23T03:11:16;21.83;44.87
66962;HTU21D;53897;51.126;5.868;2023-03-23T03:13:59;21.82;44.87
66962;HTU21D;53897;51.126;5.868;2023-03-23T03:16:42;21.82;44.87
66962;HTU21D;53897;51.126;5.868;2023-03-23T03:19:15;21.80;44.87
66962;HTU21D;53897;51.126;5.868;2023-03-23T03:21:46;21.82;44.87
66962;HTU21D;53897;51.126;5.868;2023-03-23T03:24:18;21.80;44.87
66962;HTU21D;53897;51.126;5.868;2023-03-23T03:26:52;21.80;44.87
66962;HTU21D;53897;51.126;5.868;2023-03-23T03:29:41;21.79;44.86
66962;HTU21D;53897;51.126;5.868;2023-03-23T03:32:15;21.78;44.88
66962;HTU21D;53897;51.126;5.868;2023-03-23T03:34:42;21.78;44.87
66962;HTU21D;53897;51.126;5.868;2023-03-23T03:37:10;21.78;44.90
66962;HTU21D;53897;51.126;5.868;2023-03-23T03:39:38;21.78;44.91
66962;HTU21D;53897;51.126;5.868;2023-03-23T03:42:05;21.76;44.89
66962;HTU21D;53897;51.126;5.868;2023-03-23T03:44:32;21.75;44.90
66962;HTU21D;53897;51.126;5.868;2023-03-23T03:46:59;21.76;44.90
66962;HTU21D;53897;51.126;5.868;2023-03-23T03:49:25;21.76;44.85
66962;HTU21D;53897;51.126;5.868;2023-03-23T03:51:53;21.74;44.87
66962;HTU21D;53897;51.126;5.868;2023-03-23T03:54:24;21.73;44.88
66962;HTU21D;53897;51.126;5.868;2023-03-23T03:56:50;21.73;44.89
66962;HTU21D;53897;51.126;5.868;2023-03-23T03:59:37;21.72;44.92
66962;HTU21D;53897;51.126;5.868;2023-03-23T04:02:15;21.70;44.95
66962;HTU21D;53897;51.126;5.868;2023-03-23T04:04:49;21.68;44.93
66962;HTU21D;53897;51.126;5.868;2023-03-23T04:07:17;21.70;44.95
66962;HTU21D;53897;51.126;5.868;2023-03-23T04:09:44;21.68;44.96
66962;HTU21D;53897;51.126;5.868;2023-03-23T04:12:13;21.68;44.96
66962;HTU21D;53897;51.126;5.868;2023-03-23T04:14:54;21.67;44.94
66962;HTU21D;53897;51.126;5.868;2023-03-23T04:17:19;21.67;44.96
66962;HTU21D;53897;51.126;5.868;2023-03-23T04:19:46;21.66;44.97
66962;HTU21D;53897;51.126;5.868;2023-03-23T04:22:13;21.66;44.99
66962;HTU21D;53897;51.126;5.868;2023-03-23T04:24:41;21.65;44.99
66962;HTU21D;53897;51.126;5.868;2023-03-23T04:27:12;21.64;44.99
66962;HTU21D;53897;51.126;5.868;2023-03-23T04:29:39;21.64;44.99
66962;HTU21D;53897;51.126;5.868;2023-03-23T04:32:21;21.63;44.96
66962;HTU21D;53897;51.126;5.868;2023-03-23T04:34:51;21.62;44.97
66962;HTU21D;53897;51.126;5.868;2023-03-23T04:37:19;21.62;44.99
66962;HTU21D;53897;51.126;5.868;2023-03-23T04:39:45;21.63;45.01
66962;HTU21D;53897;51.126;5.868;2023-03-23T04:42:13;21.62;45.03
66962;HTU21D;53897;51.126;5.868;2023-03-23T04:45:05;21.62;45.06
66962;HTU21D;53897;51.126;5.868;2023-03-23T04:47:37;21.61;45.09
66962;HTU21D;53897;51.126;5.868;2023-03-23T04:50:15;21.59;45.13
66962;HTU21D;53897;51.126;5.868;2023-03-23T04:52:41;21.57;45.23
66962;HTU21D;53897;51.126;5.868;2023-03-23T04:55:12;21.53;45.32
66962;HTU21D;53897;51.126;5.868;2023-03-23T04:57:41;21.49;45.43
66962;HTU21D;53897;51.126;5.868;2023-03-23T05:00:45;21.46;45.55
66962;HTU21D;53897;51.126;5.868;2023-03-23T05:03:18;21.44;45.64
66962;HTU21D;53897;51.126;5.868;2023-03-23T05:05:46;21.42;45.70
66962;HTU21D;53897;51.126;5.868;2023-03-23T05:08:22;21.39;45.77
66962;HTU21D;53897;51.126;5.868;2023-03-23T05:10:51;21.36;45.81
66962;HTU21D;53897;51.126;5.868;2023-03-23T05:13:18;21.34;45.92
66962;HTU21D;53897;51.126;5.868;2023-03-23T05:15:48;21.30;46.02
66962;HTU21D;53897;51.126;5.868;2023-03-23T05:18:14;21.27;46.12
66962;HTU21D;53897;51.126;5.868;2023-03-23T05:20:42;21.22;46.22
66962;HTU21D;53897;51.126;5.868;2023-03-23T05:23:14;21.19;46.30
66962;HTU21D;53897;51.126;5.868;2023-03-23T05:25:41;21.19;46.36
66962;HTU21D;53897;51.126;5.868;2023-03-23T05:28:13;21.17;46.43
66962;HTU21D;53897;51.126;5.868;2023-03-23T05:30:50;21.15;46.47
66962;HTU21D;53897;51.126;5.868;2023-03-23T05:33:18;21.13;46.54
66962;HTU21D;53897;51.126;5.868;2023-03-23T05:35:49;21.10;46.59
66962;HTU21D;53897;51.126;5.868;2023-03-23T05:38:18;21.10;46.61
66962;HTU21D;53897;51.126;5.868;2023-03-23T05:40:45;21.11;46.61
66962;HTU21D;53897;51.126;5.868;2023-03-23T05:43:14;21.14;46.58
66962;HTU21D;53897;51.126;5.868;2023-03-23T05:45:58;21.18;46.61
66962;HTU21D;53897;51.126;5.868;2023-03-23T05:48:24;21.28;46.60
66962;HTU21D;53897;51.126;5.868;2023-03-23T05:50:50;21.39;46.55
66962;HTU21D;53897;51.126;5.868;2023-03-23T05:53:17;21.45;46.52
66962;HTU21D;53897;51.126;5.868;2023-03-23T05:55:43;21.49;46.52
66962;HTU21D;53897;51.126;5.868;2023-03-23T05:58:19;21.53;46.43
66962;HTU21D;53897;51.126;5.868;2023-03-23T06:00:46;21.58;46.40
66962;HTU21D;53897;51.126;5.868;2023-03-23T06:03:26;21.63;46.40
66962;HTU21D;53897;51.126;5.868;2023-03-23T06:06:01;21.67;46.35
66962;HTU21D;53897;51.126;5.868;2023-03-23T06:08:34;21.72;46.31
66962;HTU21D;53897;51.126;5.868;2023-03-23T06:11:03;21.77;46.29
66962;HTU21D;53897;51.126;5.868;2023-03-23T06:13:32;21.81;46.27
66962;HTU21D;53897;51.126;5.868;2023-03-23T06:16:05;21.84;46.25
66962;HTU21D;53897;51.126;5.868;2023-03-23T06:18:48;21.88;46.18
66962;HTU21D;53897;51.126;5.868;2023-03-23T06:21:19;21.93;46.18
66962;HTU21D;53897;51.126;5.868;2023-03-23T06:24:08;21.96;46.19
66962;HTU21D;53897;51.126;5.868;2023-03-23T06:26:37;21.98;46.18
66962;HTU21D;53897;51.126;5.868;2023-03-23T06:29:07;22.02;46.15
66962;HTU21D;53897;51.126;5.868;2023-03-23T06:31:41;22.06;46.09
66962;HTU21D;53897;51.126;5.868;2023-03-23T06:34:08;22.08;46.09
66962;HTU21D;53897;51.126;5.868;2023-03-23T06:37:13;22.10;45.98
66962;HTU21D;53897;51.126;5.868;2023-03-23T06:39:48;22.12;45.90
66962;HTU21D;53897;51.126;5.868;2023-03-23T06:42:22;22.12;45.86
66962;HTU21D;53897;51.126;5.868;2023-03-23T06:44:59;22.13;45.78
66962;HTU21D;53897;51.126;5.868;2023-03-23T06:47:29;22.13;45.76
66962;HTU21D;53897;51.126;5.868;2023-03-23T06:49:56;22.14;45.74
66962;HTU21D;53897;51.126;5.868;2023-03-23T06:52:25;22.12;45.85
66962;HTU21D;53897;51.126;5.868;2023-03-23T06:54:53;22.13;45.97
66962;HTU21D;53897;51.126;5.868;2023-03-23T06:57:20;22.11;46.00
66962;HTU21D;53897;51.126;5.868;2023-03-23T06:59:47;22.10;46.02
66962;HTU21D;53897;51.126;5.868;2023-03-23T07:02:14;22.10;46.07
66962;HTU21D;53897;51.126;5.868;2023-03-23T07:04:42;22.10;45.99
66962;HTU21D;53897;51.126;5.868;2023-03-23T07:07:16;22.12;45.90
66962;HTU21D;53897;51.126;5.868;2023-03-23T07:10:13;22.12;45.91
66962;HTU21D;53897;51.126;5.868;2023-03-23T07:12:38;22.09;46.02
66962;HTU21D;53897;51.126;5.868;2023-03-23T07:15:07;22.09;45.98
66962;HTU21D;53897;51.126;5.868;2023-03-23T07:17:37;22.10;45.99
66962;HTU21D;53897;51.126;5.868;2023-03-23T07:20:14;22.11;46.24
66962;HTU21D;53897;51.126;5.868;2023-03-23T07:22:40;22.06;46.62
66962;HTU21D;53897;51.126;5.868;2023-03-23T07:25:17;22.07;47.23
66962;HTU21D;53897;51.126;5.868;2023-03-23T07:27:49;22.08;47.76
66962;HTU21D;53897;51.126;5.868;2023-03-23T07:30:16;22.08;47.85
66962;HTU21D;53897;51.126;5.868;2023-03-23T07:32:42;22.09;47.91
66962;HTU21D;53897;51.126;5.868;2023-03-23T07:35:09;22.09;48.55
66962;HTU21D;53897;51.126;5.868;2023-03-23T07:37:57;22.11;48.75
66962;HTU21D;53897;51.126;5.868;2023-03-23T07:40:23;22.11;48.81
66962;HTU21D;53897;51.126;5.868;2023-03-23T07:42:55;22.12;48.57
66962;HTU21D;53897;51.126;5.868;2023-03-23T07:45:33;22.13;48.62
66962;HTU21D;53897;51.126;5.868;2023-03-23T07:47:59;22.14;48.54
66962;HTU21D;53897;51.126;5.868;2023-03-23T07:50:26;22.16;48.47
66962;HTU21D;53897;51.126;5.868;2023-03-23T07:52:55;22.14;48.31
66962;HTU21D;53897;51.126;5.868;2023-03-23T07:55:23;22.14;48.22
66962;HTU21D;53897;51.126;5.868;2023-03-23T07:58:10;22.11;48.26
66962;HTU21D;53897;51.126;5.868;2023-03-23T08:00:37;22.12;48.09
66962;HTU21D;53897;51.126;5.868;2023-03-23T08:03:07;22.13;47.76
66962;HTU21D;53897;51.126;5.868;2023-03-23T08:05:42;22.10;47.21
66962;HTU21D;53897;51.126;5.868;2023-03-23T08:08:31;22.10;47.18
66962;HTU21D;53897;51.126;5.868;2023-03-23T08:11:27;22.09;47.21
66962;HTU21D;53897;51.126;5.868;2023-03-23T08:14:16;22.07;47.18
66962;HTU21D;53897;51.126;5.868;2023-03-23T08:17:04;22.08;47.17
66962;HTU21D;53897;51.126;5.868;2023-03-23T08:19:43;22.07;47.15
66962;HTU21D;53897;51.126;5.868;2023-03-23T08:22:31;22.08;47.12
66962;HTU21D;53897;51.126;5.868;2023-03-23T08:25:24;22.07;46.98
66962;HTU21D;53897;51.126;5.868;2023-03-23T08:28:17;22.07;46.85
66962;HTU21D;53897;51.126;5.868;2023-03-23T08:31:14;22.06;46.76
66962;HTU21D;53897;51.126;5.868;2023-03-23T08:34:01;22.06;46.67
66962;HTU21D;53897;51.126;5.868;2023-03-23T08:36:33;22.08;46.64
66962;HTU21D;53897;51.126;5.868;2023-03-23T08:39:22;22.09;46.63
66962;HTU21D;53897;51.126;5.868;2023-03-23T08:42:12;22.11;46.62
66962;HTU21D;53897;51.126;5.868;2023-03-23T08:44:55;22.13;46.60
66962;HTU21D;53897;51.126;5.868;2023-03-23T08:47:47;22.14;46.55
66962;HTU21D;53897;51.126;5.868;2023-03-23T08:50:35;22.17;46.52
66962;HTU21D;53897;51.126;5.868;2023-03-23T08:53:01;22.19;46.51
66962;HTU21D;53897;51.126;5.868;2023-03-23T08:55:48;22.20;46.48
66962;HTU21D;53897;51.126;5.868;2023-03-23T08:58:15;22.22;46.47
66962;HTU21D;53897;51.126;5.868;2023-03-23T09:00:50;22.23;46.45
66962;HTU21D;53897;51.126;5.868;2023-03-23T09:03:35;22.25;46.46
66962;HTU21D;53897;51.126;5.868;2023-03-23T09:06:21;22.27;46.43
66962;HTU21D;53897;51.126;5.868;2023-03-23T09:08:47;22.27;46.42
66962;HTU21D;53897;51.126;5.868;2023-03-23T09:11:14;22.27;46.43
66962;HTU21D;53897;51.126;5.868;2023-03-23T09:13:39;22.28;46.40
66962;HTU21D;53897;51.126;5.868;2023-03-23T09:16:06;22.29;46.40
66962;HTU21D;53897;51.126;5.868;2023-03-23T09:18:33;22.32;46.41
66962;HTU21D;53897;51.126;5.868;2023-03-23T09:20:59;22.32;46.41
66962;HTU21D;53897;51.126;5.868;2023-03-23T09:23:25;22.32;46.51
66962;HTU21D;53897;51.126;5.868;2023-03-23T09:25:52;22.33;46.50
66962;HTU21D;53897;51.126;5.868;2023-03-23T09:28:18;22.34;46.51
66962;HTU21D;53897;51.126;5.868;2023-03-23T09:30:45;22.35;46.49
66962;HTU21D;53897;51.126;5.868;2023-03-23T09:33:13;22.37;46.51
66962;HTU21D;53897;51.126;5.868;2023-03-23T09:35:40;22.36;46.49
66962;HTU21D;53897;51.126;5.868;2023-03-23T09:38:09;22.37;46.44
66962;HTU21D;53897;51.126;5.868;2023-03-23T09:40:49;22.39;46.42
66962;HTU21D;53897;51.126;5.868;2023-03-23T09:46:19;22.41;46.38
66962;HTU21D;53897;51.126;5.868;2023-03-23T09:48:56;22.40;46.25
66962;HTU21D;53897;51.126;5.868;2023-03-23T09:56:55;22.41;46.22
66962;HTU21D;53897;51.126;5.868;2023-03-23T09:59:41;22.41;46.20
66962;HTU21D;53897;51.126;5.868;2023-03-23T10:02:11;22.41;46.21
66962;HTU21D;53897;51.126;5.868;2023-03-23T10:04:44;22.42;46.25
66962;HTU21D;53897;51.126;5.868;2023-03-23T10:07:20;22.43;46.22
66962;HTU21D;53897;51.126;5.868;2023-03-23T10:09:58;22.43;46.21
66962;HTU21D;53897;51.126;5.868;2023-03-23T10:12:34;22.44;46.22
66962;HTU21D;53897;51.126;5.868;2023-03-23T10:15:09;22.44;46.24
66962;HTU21D;53897;51.126;5.868;2023-03-23T10:17:45;22.44;46.19
66962;HTU21D;53897;51.126;5.868;2023-03-23T10:20:20;22.44;46.17
66962;HTU21D;53897;51.126;5.868;2023-03-23T10:23:08;22.44;46.17
66962;HTU21D;53897;51.126;5.868;2023-03-23T10:25:41;22.44;46.18
66962;HTU21D;53897;51.126;5.868;2023-03-23T10:28:22;22.43;46.15
66962;HTU21D;53897;51.126;5.868;2023-03-23T10:30:55;22.43;46.15
66962;HTU21D;53897;51.126;5.868;2023-03-23T10:33:44;22.44;46.12
66962;HTU21D;53897;51.126;5.868;2023-03-23T10:38:47;22.46;46.12
66962;HTU21D;53897;51.126;5.868;2023-03-23T10:41:17;22.47;46.11
66962;HTU21D;53897;51.126;5.868;2023-03-23T10:43:45;22.49;46.12
66962;HTU21D;53897;51.126;5.868;2023-03-23T10:49:02;22.50;46.09
66962;HTU21D;53897;51.126;5.868;2023-03-23T10:51:34;22.51;46.13
66962;HTU21D;53897;51.126;5.868;2023-03-23T10:54:04;22.51;46.14
66962;HTU21D;53897;51.126;5.868;2023-03-23T10:56:42;22.52;46.16
66962;HTU21D;53897;51.126;5.868;2023-03-23T10:59:39;22.53;46.22
66962;HTU21D;53897;51.126;5.868;2023-03-23T11:02:16;22.55;46.25
66962;HTU21D;53897;51.126;5.868;2023-03-23T11:04:46;22.55;46.23
66962;HTU21D;53897;51.126;5.868;2023-03-23T11:07:21;22.55;46.22
66962;HTU21D;53897;51.126;5.868;2023-03-23T11:09:55;22.56;46.21
66962;HTU21D;53897;51.126;5.868;2023-03-23T11:12:21;22.57;46.20
66962;HTU21D;53897;51.126;5.868;2023-03-23T11:14:49;22.57;46.27
66962;HTU21D;53897;51.126;5.868;2023-03-23T11:17:26;22.60;46.45
66962;HTU21D;53897;51.126;5.868;2023-03-23T11:19:53;22.61;46.56
66962;HTU21D;53897;51.126;5.868;2023-03-23T11:22:28;22.62;46.55
66962;HTU21D;53897;51.126;5.868;2023-03-23T11:24:59;22.63;46.52
66962;HTU21D;53897;51.126;5.868;2023-03-23T11:27:27;22.63;46.49
66962;HTU21D;53897;51.126;5.868;2023-03-23T11:29:56;22.64;46.50
66962;HTU21D;53897;51.126;5.868;2023-03-23T11:32:26;22.65;46.48
66962;HTU21D;53897;51.126;5.868;2023-03-23T11:35:02;22.66;46.47
66962;HTU21D;53897;51.126;5.868;2023-03-23T11:37:39;22.66;46.44
66962;HTU21D;53897;51.126;5.868;2023-03-23T11:42:47;22.67;46.41
66962;HTU21D;53897;51.126;5.868;2023-03-23T11:45:35;22.69;46.44
66962;HTU21D;53897;51.126;5.868;2023-03-23T11:56:36;22.71;46.27
66962;HTU21D;53897;51.126;5.868;2023-03-23T11:59:05;22.70;46.27
66962;HTU21D;53897;51.126;5.868;2023-03-23T12:04:31;22.73;46.20
66962;HTU21D;53897;51.126;5.868;2023-03-23T12:07:14;22.72;46.17
66962;HTU21D;53897;51.126;5.868;2023-03-23T12:10:08;22.72;46.15
66962;HTU21D;53897;51.126;5.868;2023-03-23T12:12:44;22.73;46.12
66962;HTU21D;53897;51.126;5.868;2023-03-23T12:17:59;22.73;46.28
66962;HTU21D;53897;51.126;5.868;2023-03-23T12:20:52;22.72;46.39
66962;HTU21D;53897;51.126;5.868;2023-03-23T12:26:33;22.76;46.39
66962;HTU21D;53897;51.126;5.868;2023-03-23T12:32:34;22.77;46.42
66962;HTU21D;53897;51.126;5.868;2023-03-23T12:35:30;22.78;46.42
66962;HTU21D;53897;51.126;5.868;2023-03-23T12:46:08;22.80;46.41
66962;HTU21D;53897;51.126;5.868;2023-03-23T12:48:41;22.82;46.45
66962;HTU21D;53897;51.126;5.868;2023-03-23T12:51:32;22.80;46.54
66962;HTU21D;53897;51.126;5.868;2023-03-23T12:57:04;22.72;46.77
66962;HTU21D;53897;51.126;5.868;2023-03-23T12:59:56;22.65;47.03
66962;HTU21D;53897;51.126;5.868;2023-03-23T13:02:32;22.61;47.25
66962;HTU21D;53897;51.126;5.868;2023-03-23T13:07:55;22.65;47.21
66962;HTU21D;53897;51.126;5.868;2023-03-23T13:10:28;22.68;47.23
66962;HTU21D;53897;51.126;5.868;2023-03-23T13:12:56;22.71;47.24
66962;HTU21D;53897;51.126;5.868;2023-03-23T13:15:27;22.73;47.15
66962;HTU21D;53897;51.126;5.868;2023-03-23T13:23:43;22.82;46.99
66962;HTU21D;53897;51.126;5.868;2023-03-23T13:26:18;22.84;46.96
66962;HTU21D;53897;51.126;5.868;2023-03-23T13:28:57;22.86;46.96
66962;HTU21D;53897;51.126;5.868;2023-03-23T13:31:32;22.87;46.92
66962;HTU21D;53897;51.126;5.868;2023-03-23T13:34:28;22.88;46.91
66962;HTU21D;53897;51.126;5.868;2023-03-23T13:37:01;22.91;46.87
66962;HTU21D;53897;51.126;5.868;2023-03-23T13:39:49;22.92;46.86
66962;HTU21D;53897;51.126;5.868;2023-03-23T13:44:57;22.94;46.83
66962;HTU21D;53897;51.126;5.868;2023-03-23T13:47:38;22.95;46.80
66962;HTU21D;53897;51.126;5.868;2023-03-23T13:58:12;22.99;46.67
66962;HTU21D;53897;51.126;5.868;2023-03-23T14:00:47;22.98;46.71
66962;HTU21D;53897;51.126;5.868;2023-03-23T14:03:26;22.98;46.69
66962;HTU21D;53897;51.126;5.868;2023-03-23T14:10:58;23.00;46.65
66962;HTU21D;53897;51.126;5.868;2023-03-23T14:13:33;23.01;46.64
66962;HTU21D;53897;51.126;5.868;2023-03-23T14:16:00;23.00;46.70
66962;HTU21D;53897;51.126;5.868;2023-03-23T14:18:34;23.02;46.67
66962;HTU21D;53897;51.126;5.868;2023-03-23T14:21:01;23.02;46.64
66962;HTU21D;53897;51.126;5.868;2023-03-23T14:23:27;23.02;46.61
66962;HTU21D;53897;51.126;5.868;2023-03-23T14:26:00;23.02;46.61
66962;HTU21D;53897;51.126;5.868;2023-03-23T14:28:37;23.02;46.60
66962;HTU21D;53897;51.126;5.868;2023-03-23T14:31:21;23.03;46.61
66962;HTU21D;53897;51.126;5.868;2023-03-23T14:33:49;23.03;46.61
66962;HTU21D;53897;51.126;5.868;2023-03-23T14:36:21;23.05;46.64
66962;HTU21D;53897;51.126;5.868;2023-03-23T14:38:48;23.03;46.64
66962;HTU21D;53897;51.126;5.868;2023-03-23T14:41:13;23.06;46.65
66962;HTU21D;53897;51.126;5.868;2023-03-23T14:43:39;23.07;46.67
66962;HTU21D;53897;51.126;5.868;2023-03-23T14:46:09;23.07;46.68
66962;HTU21D;53897;51.126;5.868;2023-03-23T14:48:38;23.08;46.68
66962;HTU21D;53897;51.126;5.868;2023-03-23T14:51:05;23.09;46.67
66962;HTU21D;53897;51.126;5.868;2023-03-23T14:53:36;23.08;46.65
66962;HTU21D;53897;51.126;5.868;2023-03-23T14:56:17;23.06;46.84
66962;HTU21D;53897;51.126;5.868;2023-03-23T14:58:48;23.05;46.93
66962;HTU21D;53897;51.126;5.868;2023-03-23T15:01:19;23.05;46.96
66962;HTU21D;53897;51.126;5.868;2023-03-23T15:06:39;22.97;47.24
66962;HTU21D;53897;51.126;5.868;2023-03-23T15:09:17;22.96;47.36
66962;HTU21D;53897;51.126;5.868;2023-03-23T15:12:03;22.96;47.45
66962;HTU21D;53897;51.126;5.868;2023-03-23T15:17:18;22.93;47.62
66962;HTU21D;53897;51.126;5.868;2023-03-23T15:19:45;22.94;47.60
66962;HTU21D;53897;51.126;5.868;2023-03-23T15:22:30;22.95;47.56
66962;HTU21D;53897;51.126;5.868;2023-03-23T15:25:28;22.97;47.51
66962;HTU21D;53897;51.126;5.868;2023-03-23T15:30:36;22.98;45.90
66962;HTU21D;53897;51.126;5.868;2023-03-23T15:33:14;22.97;45.64
66962;HTU21D;53897;51.126;5.868;2023-03-23T15:35:47;22.96;45.60
66962;HTU21D;53897;51.126;5.868;2023-03-23T15:38:22;22.97;45.59
66962;HTU21D;53897;51.126;5.868;2023-03-23T15:40:50;22.99;45.61
66962;HTU21D;53897;51.126;5.868;2023-03-23T15:43:20;22.99;45.68
66962;HTU21D;53897;51.126;5.868;2023-03-23T15:45:59;23.02;45.75
66962;HTU21D;53897;51.126;5.868;2023-03-23T15:48:44;23.03;45.76
66962;HTU21D;53897;51.126;5.868;2023-03-23T15:51:11;23.06;45.79
66962;HTU21D;53897;51.126;5.868;2023-03-23T15:53:39;23.06;45.76
66962;HTU21D;53897;51.126;5.868;2023-03-23T15:56:07;23.07;45.76
66962;HTU21D;53897;51.126;5.868;2023-03-23T15:58:34;23.09;45.77
66962;HTU21D;53897;51.126;5.868;2023-03-23T16:01:06;23.09;45.80
66962;HTU21D;53897;51.126;5.868;2023-03-23T16:03:45;23.08;45.86
66962;HTU21D;53897;51.126;5.868;2023-03-23T16:06:13;23.09;45.88
66962;HTU21D;53897;51.126;5.868;2023-03-23T16:08:41;23.08;45.91
66962;HTU21D;53897;51.126;5.868;2023-03-23T16:11:10;23.08;45.99
66962;HTU21D;53897;51.126;5.868;2023-03-23T16:13:39;23.07;46.10
66962;HTU21D;53897;51.126;5.868;2023-03-23T16:16:14;23.06;46.19
66962;HTU21D;53897;51.126;5.868;2023-03-23T16:18:41;23.07;46.24
66962;HTU21D;53897;51.126;5.868;2023-03-23T16:21:07;23.06;46.44
66962;HTU21D;53897;51.126;5.868;2023-03-23T16:23:32;23.06;46.49
66962;HTU21D;53897;51.126;5.868;2023-03-23T16:25:58;23.01;46.58
66962;HTU21D;53897;51.126;5.868;2023-03-23T16:28:23;23.01;46.65
66962;HTU21D;53897;51.126;5.868;2023-03-23T16:30:49;22.99;46.73
66962;HTU21D;53897;51.126;5.868;2023-03-23T16:33:15;22.97;46.83
66962;HTU21D;53897;51.126;5.868;2023-03-23T16:35:41;22.97;46.89
66962;HTU21D;53897;51.126;5.868;2023-03-23T16:38:12;22.96;46.90
66962;HTU21D;53897;51.126;5.868;2023-03-23T16:40:39;22.96;46.95
66962;HTU21D;53897;51.126;5.868;2023-03-23T16:43:05;22.98;46.91
66962;HTU21D;53897;51.126;5.868;2023-03-23T16:45:31;23.00;47.00
66962;HTU21D;53897;51.126;5.868;2023-03-23T16:47:57;23.01;47.07
66962;HTU21D;53897;51.126;5.868;2023-03-23T16:50:27;23.03;47.10
66962;HTU21D;53897;51.126;5.868;2023-03-23T16:52:54;23.05;47.27
66962;HTU21D;53897;51.126;5.868;2023-03-23T16:55:20;23.05;47.43
66962;HTU21D;53897;51.126;5.868;2023-03-23T16:57:46;23.08;47.57
66962;HTU21D;53897;51.126;5.868;2023-03-23T17:00:15;23.08;47.83
66962;HTU21D;53897;51.126;5.868;2023-03-23T17:02:45;23.09;48.03
66962;HTU21D;53897;51.126;5.868;2023-03-23T17:05:13;23.09;48.27
66962;HTU21D;53897;51.126;5.868;2023-03-23T17:07:41;23.09;48.57
66962;HTU21D;53897;51.126;5.868;2023-03-23T17:10:08;23.09;48.79
66962;HTU21D;53897;51.126;5.868;2023-03-23T17:12:34;23.09;49.02
66962;HTU21D;53897;51.126;5.868;2023-03-23T17:15:00;23.11;49.08
66962;HTU21D;53897;51.126;5.868;2023-03-23T17:17:26;23.12;49.16
66962;HTU21D;53897;51.126;5.868;2023-03-23T17:19:52;23.11;49.09
66962;HTU21D;53897;51.126;5.868;2023-03-23T17:22:18;23.11;49.05
66962;HTU21D;53897;51.126;5.868;2023-03-23T17:24:43;23.12;49.15
66962;HTU21D;53897;51.126;5.868;2023-03-23T17:27:14;23.13;49.16
66962;HTU21D;53897;51.126;5.868;2023-03-23T17:29:40;23.14;49.10